createdAt,value
2018-03-21T00:01:50.293Z,4.95
2018-03-21T00:04:17.756Z,3.55
2018-03-21T00:06:45.212Z,4.97
2018-03-21T00:09:12.730Z,4.95
2018-03-21T00:11:40.153Z,2.90
2018-03-21T00:14:07.585Z,5.53
2018-03-21T00:16:35.074Z,3.30
2018-03-21T00:19:02.508Z,4.78
2018-03-21T00:21:29.957Z,7.20
2018-03-21T00:23:57.350Z,4.55
2018-03-21T00:26:25.088Z,3.22
2018-03-21T00:28:52.551Z,5.57
2018-03-21T00:31:20.010Z,3.42
2018-03-21T00:33:47.435Z,5.57
2018-03-21T00:36:14.821Z,4.65
2018-03-21T00:38:42.241Z,4.55
2018-03-21T00:41:09.708Z,5.30
2018-03-21T00:43:37.356Z,6.18
2018-03-21T00:46:04.846Z,4.22
2018-03-21T00:48:32.450Z,5.90
2018-03-21T00:50:59.890Z,7.30
2018-03-21T00:53:27.487Z,4.37
2018-03-21T00:55:54.943Z,3.80
2018-03-21T00:58:22.336Z,4.20
2018-03-21T01:00:49.748Z,4.97
2018-03-21T01:03:17.148Z,5.28
2018-03-21T01:05:44.581Z,4.15
2018-03-21T01:08:12.047Z,5.80
2018-03-21T01:10:39.441Z,3.70
2018-03-21T01:13:06.895Z,4.62
2018-03-21T01:15:34.477Z,5.22
2018-03-21T01:18:01.940Z,5.12
2018-03-21T01:20:29.353Z,3.65
2018-03-21T01:22:56.909Z,5.25
2018-03-21T01:25:24.320Z,4.20
2018-03-21T01:27:51.939Z,4.68
2018-03-21T01:30:19.369Z,4.15
2018-03-21T01:32:46.796Z,5.57
2018-03-21T01:35:14.276Z,5.22
2018-03-21T01:37:41.741Z,3.80
2018-03-21T01:40:09.174Z,4.80
2018-03-21T01:42:36.606Z,4.72
2018-03-21T01:45:03.992Z,4.75
2018-03-21T01:47:31.433Z,4.70
2018-03-21T01:49:58.840Z,3.53
2018-03-21T01:52:26.264Z,4.20
2018-03-21T01:54:53.700Z,4.15
2018-03-21T01:57:21.121Z,3.85
2018-03-21T01:59:48.575Z,4.07
2018-03-21T02:02:16.036Z,3.70
2018-03-21T02:04:43.424Z,5.22
2018-03-21T02:07:10.894Z,3.33
2018-03-21T02:09:38.404Z,4.72
2018-03-21T02:12:05.949Z,4.45
2018-03-21T02:14:33.441Z,3.95
2018-03-21T02:17:01.122Z,4.75
2018-03-21T02:19:28.501Z,4.85
2018-03-21T02:21:55.970Z,3.83
2018-03-21T02:24:23.421Z,3.60
2018-03-21T02:26:50.948Z,4.25
2018-03-21T02:29:18.356Z,2.78
2018-03-21T02:31:45.791Z,3.20
2018-03-21T02:34:13.179Z,4.57
2018-03-21T02:36:40.621Z,4.75
2018-03-21T02:39:08.178Z,5.65
2018-03-21T02:41:35.591Z,5.15
2018-03-21T02:44:03.014Z,4.32
2018-03-21T02:46:30.486Z,2.85
2018-03-21T02:48:57.958Z,4.32
2018-03-21T02:51:25.415Z,5.60
2018-03-21T02:53:52.834Z,4.80
2018-03-21T02:56:20.225Z,5.37
2018-03-21T02:58:48.592Z,4.87
2018-03-21T03:01:16.027Z,5.43
2018-03-21T03:03:43.482Z,7.78
2018-03-21T03:06:10.921Z,5.10
2018-03-21T03:08:38.547Z,7.68
2018-03-21T03:11:05.944Z,5.70
2018-03-21T03:13:33.382Z,6.20
2018-03-21T03:16:00.811Z,5.97
2018-03-21T03:18:28.378Z,5.75
2018-03-21T03:20:55.759Z,3.90
2018-03-21T03:23:23.222Z,5.25
2018-03-21T03:25:50.661Z,4.07
2018-03-21T03:28:18.043Z,4.75
2018-03-21T03:30:45.654Z,4.80
2018-03-21T03:33:13.117Z,4.50
2018-03-21T03:35:40.534Z,6.87
2018-03-21T03:38:08.282Z,5.95
2018-03-21T03:40:35.885Z,6.10
2018-03-21T03:43:03.349Z,4.70
2018-03-21T03:45:30.776Z,6.32
2018-03-21T03:47:58.201Z,7.10
2018-03-21T03:50:25.618Z,5.75
2018-03-21T03:52:53.038Z,5.43
2018-03-21T03:55:20.501Z,6.37
2018-03-21T03:57:47.925Z,5.47
2018-03-21T04:00:15.389Z,5.53
2018-03-21T04:02:42.790Z,5.28
2018-03-21T04:05:10.338Z,6.53
2018-03-21T04:07:37.816Z,6.30
2018-03-21T04:10:05.232Z,4.55
2018-03-21T04:12:32.653Z,4.97
2018-03-21T04:15:00.110Z,4.62
2018-03-21T04:17:27.588Z,5.22
2018-03-21T04:19:55.032Z,5.90
2018-03-21T04:22:22.460Z,4.78
2018-03-21T04:24:49.891Z,6.70
2018-03-21T04:27:17.284Z,6.22
2018-03-21T04:29:44.707Z,4.68
2018-03-21T04:32:12.239Z,5.53
2018-03-21T04:34:39.628Z,3.97
2018-03-21T04:37:07.032Z,6.22
2018-03-21T04:39:34.419Z,5.07
2018-03-21T04:42:01.921Z,6.12
2018-03-21T04:44:29.383Z,4.50
2018-03-21T04:46:56.813Z,6.30
2018-03-21T04:49:24.237Z,5.57
2018-03-21T04:51:51.639Z,6.40
2018-03-21T04:54:19.301Z,5.15
2018-03-21T04:56:46.724Z,5.97
2018-03-21T04:59:14.150Z,5.78
2018-03-21T05:01:41.528Z,4.47
2018-03-21T05:04:08.978Z,6.50
2018-03-21T05:06:36.376Z,7.05
2018-03-21T05:09:03.778Z,5.05
2018-03-21T05:11:31.400Z,5.03
2018-03-21T05:13:58.906Z,7.50
2018-03-21T05:16:26.354Z,6.40
2018-03-21T05:18:53.798Z,7.30
2018-03-21T05:21:21.245Z,5.80
2018-03-21T05:23:48.706Z,6.30
2018-03-21T05:26:16.736Z,5.18
2018-03-21T05:28:44.185Z,5.75
2018-03-21T05:31:11.605Z,4.15
2018-03-21T05:33:39.375Z,4.90
2018-03-21T05:36:06.837Z,5.45
2018-03-21T05:38:34.308Z,4.50
2018-03-21T05:41:01.738Z,2.75
2018-03-21T05:43:29.172Z,4.28
2018-03-21T05:45:56.556Z,5.00
2018-03-21T05:48:23.967Z,5.12
2018-03-21T05:50:52.106Z,4.80
2018-03-21T05:53:19.495Z,5.82
2018-03-21T05:55:46.965Z,4.95
2018-03-21T05:58:14.420Z,6.57
2018-03-21T06:00:41.859Z,5.43
2018-03-21T06:03:09.285Z,3.95
2018-03-21T06:05:36.686Z,5.45
2018-03-21T06:08:04.155Z,5.05
2018-03-21T06:10:32.382Z,4.60
2018-03-21T06:13:00.173Z,5.07
2018-03-21T06:15:28.313Z,4.75
2018-03-21T06:17:55.722Z,4.20
2018-03-21T06:20:23.190Z,4.90
2018-03-21T06:22:51.155Z,6.45
2018-03-21T06:25:18.604Z,6.45
2018-03-21T06:27:46.036Z,5.75
2018-03-21T06:30:13.478Z,7.35
2018-03-21T06:32:40.920Z,4.82
2018-03-21T06:35:08.358Z,5.60
2018-03-21T06:37:35.783Z,6.03
2018-03-21T06:40:03.921Z,5.10
2018-03-21T06:42:31.355Z,6.47
2018-03-21T06:44:58.811Z,4.85
2018-03-21T06:47:26.248Z,5.55
2018-03-21T06:49:53.730Z,5.93
2018-03-21T06:52:21.130Z,6.28
2018-03-21T06:54:48.627Z,5.85
2018-03-21T06:57:16.296Z,6.15
2018-03-21T06:59:43.773Z,5.28
2018-03-21T07:02:11.442Z,6.78
2018-03-21T07:04:38.878Z,4.62
2018-03-21T07:07:06.344Z,5.47
2018-03-21T07:09:33.769Z,7.18
2018-03-21T07:12:01.193Z,4.45
2018-03-21T07:14:40.258Z,5.47
2018-03-21T07:17:07.695Z,4.12
2018-03-21T07:19:35.083Z,5.47
2018-03-21T07:22:04.175Z,6.15
2018-03-21T07:24:31.643Z,4.85
2018-03-21T07:26:59.606Z,5.70
2018-03-21T07:29:27.069Z,5.07
2018-03-21T07:31:54.478Z,6.72
2018-03-21T07:34:21.901Z,4.85
2018-03-21T07:36:49.421Z,6.25
2018-03-21T07:39:17.099Z,4.65
2018-03-21T07:41:44.598Z,4.60
2018-03-21T07:44:12.012Z,5.05
2018-03-21T07:46:39.481Z,7.47
2018-03-21T07:49:06.917Z,4.75
2018-03-21T07:51:34.408Z,5.32
2018-03-21T07:54:01.878Z,3.78
2018-03-21T07:56:29.321Z,5.47
2018-03-21T07:58:57.035Z,4.80
2018-03-21T08:01:24.604Z,4.47
2018-03-21T08:03:51.991Z,5.12
2018-03-21T08:06:19.424Z,4.20
2018-03-21T08:08:46.898Z,4.47
2018-03-21T08:11:14.361Z,5.55
2018-03-21T08:13:41.829Z,7.60
2018-03-21T08:16:09.253Z,7.12
2018-03-21T08:18:36.656Z,5.78
2018-03-21T08:21:04.148Z,5.32
2018-03-21T08:23:31.567Z,5.22
2018-03-21T08:25:59.886Z,5.30
2018-03-21T08:28:27.348Z,5.00
2018-03-21T08:30:54.812Z,4.32
2018-03-21T08:33:22.247Z,4.30
2018-03-21T08:35:49.658Z,4.53
2018-03-21T08:38:17.098Z,5.03
2018-03-21T08:40:44.526Z,5.03
2018-03-21T08:43:12.045Z,5.15
2018-03-21T08:45:39.482Z,4.87
2018-03-21T08:48:06.915Z,4.75
2018-03-21T08:50:34.304Z,5.25
2018-03-21T08:53:01.715Z,4.85
2018-03-21T08:55:29.205Z,4.35
2018-03-21T08:57:57.156Z,4.35
2018-03-21T09:00:24.636Z,5.20
2018-03-21T09:02:52.395Z,4.22
2018-03-21T09:05:19.937Z,4.97
2018-03-21T09:07:47.437Z,5.90
2018-03-21T09:10:14.880Z,5.90
2018-03-21T09:12:42.408Z,4.93
2018-03-21T09:15:09.914Z,5.55
2018-03-21T09:17:37.369Z,4.97
2018-03-21T09:20:04.871Z,4.40
2018-03-21T09:22:32.446Z,5.43
2018-03-21T09:24:59.906Z,5.05
2018-03-21T09:27:27.305Z,4.65
2018-03-21T09:29:54.733Z,3.45
2018-03-21T09:32:22.151Z,4.05
2018-03-21T09:34:49.548Z,4.97
2018-03-21T09:37:17.872Z,5.32
2018-03-21T09:39:45.286Z,5.75
2018-03-21T09:42:12.735Z,5.10
2018-03-21T09:44:40.169Z,5.10
2018-03-21T09:47:07.608Z,3.78
2018-03-21T09:49:35.075Z,5.75
2018-03-21T09:52:02.519Z,4.47
2018-03-21T09:54:46.321Z,4.22
2018-03-21T09:57:13.768Z,5.18
2018-03-21T09:59:41.955Z,4.53
2018-03-21T10:02:09.336Z,3.75
2018-03-21T10:04:36.799Z,4.60
2018-03-21T10:07:04.351Z,4.07
2018-03-21T10:09:31.801Z,3.55
2018-03-21T10:11:59.293Z,3.78
2018-03-21T10:14:26.749Z,3.80
2018-03-21T10:16:54.182Z,3.37
2018-03-21T10:19:21.632Z,4.82
2018-03-21T10:21:49.123Z,4.40
2018-03-21T10:24:16.520Z,3.35
2018-03-21T10:26:44.006Z,4.43
2018-03-21T10:29:11.583Z,3.30
2018-03-21T10:31:39.077Z,4.85
2018-03-21T10:34:06.534Z,5.05
2018-03-21T10:36:33.967Z,4.97
2018-03-21T10:39:01.437Z,3.42
2018-03-21T10:41:28.900Z,2.72
2018-03-21T10:43:56.294Z,3.95
2018-03-21T10:46:23.759Z,4.10
2018-03-21T10:48:51.563Z,2.80
2018-03-21T10:51:19.022Z,4.35
2018-03-21T10:53:47.052Z,3.92
2018-03-21T10:56:14.756Z,3.65
2018-03-21T10:58:42.218Z,3.92
2018-03-21T11:01:15.406Z,3.70
2018-03-21T11:03:57.247Z,3.60
2018-03-21T11:06:24.745Z,3.45
2018-03-21T11:08:52.423Z,3.17
2018-03-21T11:11:19.922Z,5.18
2018-03-21T11:13:47.356Z,4.05
2018-03-21T11:16:15.766Z,2.40
2018-03-21T11:18:43.350Z,3.03
2018-03-21T11:21:11.191Z,3.33
2018-03-21T11:23:38.940Z,3.65
2018-03-21T11:26:06.343Z,4.53
2018-03-21T11:28:33.789Z,4.15
2018-03-21T11:31:01.322Z,2.92
2018-03-21T11:33:28.890Z,4.32
2018-03-21T11:35:56.385Z,3.85
2018-03-21T11:38:23.813Z,3.08
2018-03-21T11:40:51.258Z,2.80
2018-03-21T11:43:18.689Z,4.15
2018-03-21T11:45:46.222Z,3.37
2018-03-21T11:48:14.025Z,2.60
2018-03-21T11:50:41.523Z,2.80
2018-03-21T11:53:09.148Z,3.65
2018-03-21T11:55:36.575Z,3.55
2018-03-21T11:58:03.988Z,3.92
2018-03-21T12:00:31.550Z,2.95
2018-03-21T12:02:59.038Z,3.83
2018-03-21T12:05:26.538Z,4.43
2018-03-21T12:07:54.007Z,3.25
2018-03-21T12:10:21.490Z,4.35
2018-03-21T12:12:48.941Z,3.15
2018-03-21T12:15:16.422Z,4.35
2018-03-21T12:17:44.810Z,2.90
2018-03-21T12:20:12.328Z,3.42
2018-03-21T12:22:39.763Z,3.75
2018-03-21T12:25:08.296Z,2.83
2018-03-21T12:27:35.708Z,2.78
2018-03-21T12:30:03.149Z,4.37
2018-03-21T12:32:30.704Z,3.12
2018-03-21T12:34:58.161Z,4.70
2018-03-21T12:37:25.602Z,3.78
2018-03-21T12:39:52.984Z,3.60
2018-03-21T12:42:20.625Z,4.03
2018-03-21T12:44:48.124Z,2.67
2018-03-21T12:47:15.457Z,3.90
2018-03-21T12:49:43.481Z,3.80
2018-03-21T12:52:10.970Z,3.72
2018-03-21T12:54:38.426Z,4.75
2018-03-21T12:57:10.864Z,2.37
2018-03-21T12:59:38.256Z,2.87
2018-03-21T13:02:05.700Z,3.55
2018-03-21T13:04:33.098Z,2.95
2018-03-21T13:07:00.666Z,2.83
2018-03-21T13:09:28.058Z,2.55
2018-03-21T13:11:55.540Z,2.75
2018-03-21T13:14:22.981Z,2.97
2018-03-21T13:16:50.409Z,3.58
2018-03-21T13:19:18.128Z,2.65
2018-03-21T13:21:45.552Z,2.90
2018-03-21T13:24:13.341Z,3.67
2018-03-21T13:26:40.978Z,2.97
2018-03-21T13:29:08.442Z,2.40
2018-03-21T13:31:35.990Z,3.55
2018-03-21T13:34:03.411Z,2.97
2018-03-21T13:36:30.863Z,2.05
2018-03-21T13:38:58.629Z,2.75
2018-03-21T13:41:26.036Z,2.03
2018-03-21T13:43:53.545Z,2.60
2018-03-21T13:46:21.037Z,2.03
2018-03-21T13:48:48.507Z,3.22
2018-03-21T13:51:15.961Z,2.65
2018-03-21T13:53:43.385Z,2.03
2018-03-21T13:56:10.870Z,2.40
2018-03-21T13:58:38.288Z,2.92
2018-03-21T14:01:05.678Z,2.53
2018-03-21T14:03:33.124Z,3.00
2018-03-21T14:06:00.723Z,2.60
2018-03-21T14:08:28.149Z,2.12
2018-03-21T14:10:55.773Z,3.45
2018-03-21T14:13:23.225Z,2.85
2018-03-21T14:15:50.692Z,2.97
2018-03-21T14:18:18.219Z,3.00
2018-03-21T14:20:45.642Z,2.08
2018-03-21T14:23:13.073Z,2.62
2018-03-21T14:25:40.473Z,2.37
2018-03-21T14:28:08.177Z,2.15
2018-03-21T14:30:35.626Z,3.15
2018-03-21T14:33:03.036Z,3.28
2018-03-21T14:35:30.506Z,2.00
2018-03-21T14:37:57.920Z,1.90
2018-03-21T14:40:25.399Z,2.50
2018-03-21T14:42:52.883Z,1.70
2018-03-21T14:45:20.367Z,2.83
2018-03-21T14:47:47.912Z,3.08
2018-03-21T14:50:15.352Z,2.40
2018-03-21T14:52:42.780Z,2.10
2018-03-21T14:55:10.243Z,2.33
2018-03-21T14:57:37.673Z,1.95
2018-03-21T15:00:05.092Z,2.40
2018-03-21T15:02:32.532Z,2.92
2018-03-21T15:05:00.070Z,1.40
2018-03-21T15:07:27.525Z,2.12
2018-03-21T15:09:54.957Z,2.22
2018-03-21T15:12:22.386Z,2.08
2018-03-21T15:14:49.894Z,2.40
2018-03-21T15:17:17.399Z,2.45
2018-03-21T15:19:44.868Z,2.10
2018-03-21T15:22:12.297Z,2.03
2018-03-21T15:24:39.735Z,1.75
2018-03-21T15:27:07.168Z,2.33
2018-03-21T15:29:34.722Z,2.33
2018-03-21T15:32:02.184Z,2.55
2018-03-21T15:34:29.664Z,2.47
2018-03-21T15:36:57.092Z,3.15
2018-03-21T15:39:24.697Z,2.70
2018-03-21T15:41:52.083Z,2.22
2018-03-21T15:44:19.616Z,3.05
2018-03-21T15:46:47.004Z,1.77
2018-03-21T15:49:14.533Z,2.20
2018-03-21T15:51:42.167Z,1.95
2018-03-21T15:54:09.648Z,2.05
2018-03-21T15:56:37.119Z,1.92
2018-03-21T15:59:04.607Z,2.10
2018-03-21T16:01:32.024Z,2.67
2018-03-21T16:03:59.534Z,2.10
2018-03-21T16:06:26.973Z,1.48
2018-03-21T16:08:54.446Z,2.37
2018-03-21T16:11:21.910Z,1.80
2018-03-21T16:13:49.399Z,1.80
2018-03-21T16:16:16.882Z,2.25
2018-03-21T16:18:44.432Z,3.05
2018-03-21T16:21:11.830Z,2.30
2018-03-21T16:23:39.340Z,2.30
2018-03-21T16:26:06.783Z,3.37
2018-03-21T16:28:34.255Z,1.80
2018-03-21T16:31:01.729Z,1.70
2018-03-21T16:33:29.190Z,2.65
2018-03-21T16:35:56.645Z,1.30
2018-03-21T16:38:24.106Z,1.45
2018-03-21T16:40:51.565Z,2.12
2018-03-21T16:43:19.048Z,1.77
2018-03-21T16:45:46.657Z,2.40
2018-03-21T16:48:14.148Z,1.48
2018-03-21T16:50:42.482Z,1.60
2018-03-21T16:53:09.873Z,2.12
2018-03-21T16:55:37.990Z,2.00
2018-03-21T16:58:05.509Z,1.40
2018-03-21T17:00:32.994Z,1.95
2018-03-21T17:03:00.443Z,1.90
2018-03-21T17:05:28.075Z,1.25
2018-03-21T17:07:55.548Z,2.40
2018-03-21T17:10:23.035Z,1.70
2018-03-21T17:12:50.412Z,2.55
2018-03-21T17:15:18.069Z,2.58
2018-03-21T17:17:45.730Z,1.92
2018-03-21T17:20:13.341Z,1.75
2018-03-21T17:22:40.754Z,2.37
2018-03-21T17:25:08.237Z,2.10
2018-03-21T17:27:35.837Z,1.98
2018-03-21T17:30:03.745Z,1.62
2018-03-21T17:32:31.210Z,1.90
2018-03-21T17:37:32.390Z,1.55
2018-03-21T17:40:00.761Z,1.98
2018-03-21T17:42:28.201Z,1.70
2018-03-21T17:44:55.622Z,2.33
2018-03-21T17:47:23.890Z,3.08
2018-03-21T17:49:51.311Z,2.85
2018-03-21T17:52:18.798Z,1.50
2018-03-21T17:54:46.249Z,1.62
2018-03-21T17:57:13.686Z,2.05
2018-03-21T17:59:41.109Z,2.78
2018-03-21T18:02:08.606Z,2.67
2018-03-21T18:04:36.564Z,1.55
2018-03-21T18:07:04.001Z,2.75
2018-03-21T18:09:31.485Z,2.60
2018-03-21T18:11:59.120Z,2.45
2018-03-21T18:14:26.513Z,1.60
2018-03-21T18:16:53.942Z,2.10
2018-03-21T18:19:21.368Z,2.58
2018-03-21T18:21:48.785Z,1.20
2018-03-21T18:24:16.430Z,1.58
2018-03-21T18:26:43.855Z,1.80
2018-03-21T18:29:11.354Z,3.67
2018-03-21T18:31:38.813Z,3.75
2018-03-21T18:34:06.242Z,2.60
2018-03-21T18:36:33.690Z,2.67
2018-03-21T18:39:01.082Z,1.90
2018-03-21T18:41:28.517Z,2.50
2018-03-21T18:43:56.032Z,3.22
2018-03-21T18:46:23.451Z,3.00
2018-03-21T18:48:50.922Z,3.28
2018-03-21T18:51:18.455Z,2.00
2018-03-21T18:53:46.470Z,2.47
2018-03-21T18:56:13.873Z,2.25
2018-03-21T18:58:41.401Z,1.95
2018-03-21T19:01:08.825Z,1.98
2018-03-21T19:03:36.255Z,2.08
2018-03-21T19:06:03.697Z,1.75
2018-03-21T19:08:31.118Z,1.80
2018-03-21T19:10:58.609Z,3.37
2018-03-21T19:13:26.078Z,2.30
2018-03-21T19:15:53.529Z,2.22
2018-03-21T19:18:21.102Z,2.60
2018-03-21T19:20:48.571Z,3.37
2018-03-21T19:23:16.270Z,2.65
2018-03-21T19:25:43.695Z,2.08
2018-03-21T19:28:11.143Z,2.80
2018-03-21T19:30:38.668Z,1.90
2018-03-21T19:33:06.074Z,2.40
2018-03-21T19:35:33.559Z,2.50
2018-03-21T19:38:00.991Z,2.05
2018-03-21T19:40:28.421Z,2.00
2018-03-21T19:42:55.944Z,1.60
2018-03-21T19:45:23.728Z,2.30
2018-03-21T19:47:51.141Z,2.58
2018-03-21T19:50:18.595Z,2.12
2018-03-21T19:52:46.008Z,3.28
2018-03-21T19:55:13.468Z,3.22
2018-03-21T19:57:41.100Z,1.42
2018-03-21T20:00:08.565Z,1.60
2018-03-21T20:02:36.183Z,1.75
2018-03-21T20:05:03.837Z,3.25
2018-03-21T20:07:31.299Z,2.72
2018-03-21T20:09:58.777Z,1.85
2018-03-21T20:12:26.203Z,2.17
2018-03-21T20:14:53.630Z,2.10
2018-03-21T20:17:21.045Z,2.97
2018-03-21T20:19:48.497Z,2.30
2018-03-21T20:22:15.942Z,1.85
2018-03-21T20:24:43.369Z,2.20
2018-03-21T20:27:10.820Z,1.95
2018-03-21T20:29:38.229Z,3.05
2018-03-21T20:32:05.671Z,2.17
2018-03-21T20:34:33.158Z,1.77
2018-03-21T20:37:00.655Z,2.70
2018-03-21T20:39:28.087Z,2.05
2018-03-21T20:41:56.383Z,2.53
2018-03-21T20:44:23.897Z,2.50
2018-03-21T20:46:51.400Z,2.22
2018-03-21T20:49:18.980Z,2.25
2018-03-21T20:51:46.686Z,1.62
2018-03-21T20:54:14.122Z,2.45
2018-03-21T20:56:41.536Z,1.92
2018-03-21T20:59:08.974Z,1.87
2018-03-21T21:01:36.398Z,2.75
2018-03-21T21:04:03.924Z,2.50
2018-03-21T21:06:31.326Z,3.10
2018-03-21T21:08:58.752Z,2.08
2018-03-21T21:11:26.199Z,2.55
2018-03-21T21:13:53.694Z,3.42
2018-03-21T21:16:21.201Z,3.12
2018-03-21T21:18:48.925Z,2.80
2018-03-21T21:21:16.378Z,3.40
2018-03-21T21:23:43.871Z,2.37
2018-03-21T21:26:11.340Z,2.08
2018-03-21T21:28:38.737Z,2.30
2018-03-21T21:31:06.925Z,2.12
2018-03-21T21:33:34.359Z,3.20
2018-03-21T21:36:02.041Z,1.87
2018-03-21T21:38:29.512Z,2.85
2018-03-21T21:40:56.977Z,2.00
2018-03-21T21:43:24.426Z,2.42
2018-03-21T21:45:51.882Z,2.50
2018-03-21T21:48:20.141Z,2.75
2018-03-21T21:50:47.593Z,1.75
2018-03-21T21:53:15.042Z,1.83
2018-03-21T21:55:42.470Z,4.25
2018-03-21T21:58:09.937Z,2.20
2018-03-21T22:00:37.342Z,2.20
2018-03-21T22:03:04.744Z,2.15
2018-03-21T22:05:32.760Z,2.55
2018-03-21T22:08:00.160Z,1.85
2018-03-21T22:10:27.589Z,1.92
2018-03-21T22:12:54.980Z,3.30
2018-03-21T22:15:22.433Z,1.77
2018-03-21T22:17:49.857Z,2.58
2018-03-21T22:20:18.232Z,2.95
2018-03-21T22:22:45.743Z,3.37
2018-03-21T22:25:13.212Z,2.05
2018-03-21T22:27:40.653Z,1.98
2018-03-21T22:30:08.131Z,1.73
2018-03-21T22:32:35.586Z,2.47
2018-03-21T22:35:02.983Z,3.08
2018-03-21T22:37:30.396Z,1.85
2018-03-21T22:39:57.971Z,2.00
2018-03-21T22:42:25.498Z,2.28
2018-03-21T22:44:52.918Z,2.35
2018-03-21T22:47:20.318Z,1.98
2018-03-21T22:49:48.406Z,1.87
2018-03-21T22:52:15.857Z,3.08
2018-03-21T22:54:43.496Z,2.30
2018-03-21T22:57:10.879Z,1.45
2018-03-21T22:59:38.347Z,2.30
2018-03-21T23:02:05.769Z,2.08
2018-03-21T23:04:33.199Z,2.35
2018-03-21T23:07:00.621Z,3.97
2018-03-21T23:09:28.057Z,3.08
2018-03-21T23:11:55.487Z,2.60
2018-03-21T23:14:22.905Z,2.80
2018-03-21T23:16:50.399Z,2.70
2018-03-21T23:19:17.852Z,1.55
2018-03-21T23:21:45.244Z,2.42
2018-03-21T23:24:12.714Z,2.20
2018-03-21T23:26:40.336Z,2.05
2018-03-21T23:29:08.238Z,1.95
2018-03-21T23:31:35.655Z,2.15
2018-03-21T23:34:03.769Z,2.17
2018-03-21T23:36:31.176Z,2.20
2018-03-21T23:38:58.573Z,2.40
2018-03-21T23:41:26.035Z,1.70
2018-03-21T23:43:53.795Z,2.30
2018-03-21T23:46:21.248Z,2.78
2018-03-21T23:48:48.711Z,2.05
2018-03-21T23:51:16.171Z,3.10
2018-03-21T23:53:43.733Z,2.78
2018-03-21T23:56:11.466Z,2.85
2018-03-21T23:58:38.886Z,1.27
